createdAt,value
2022-07-31T00:01:46.269Z,3.03
2022-07-31T00:06:51.188Z,3.28
2022-07-31T00:11:54.592Z,3.38
2022-07-31T00:16:58.406Z,3.20
2022-07-31T00:22:03.130Z,3.35
2022-07-31T00:27:06.848Z,3.22
2022-07-31T00:32:11.526Z,3.38
2022-07-31T00:37:16.721Z,3.20
2022-07-31T00:42:21.365Z,3.72
2022-07-31T00:47:27.325Z,3.30
2022-07-31T00:52:32.070Z,3.25
2022-07-31T00:57:35.512Z,3.10
2022-07-31T01:02:46.469Z,2.88
2022-07-31T01:07:51.630Z,3.25
2022-07-31T01:13:00.276Z,2.97
2022-07-31T01:18:05.303Z,3.72
2022-07-31T01:23:23.237Z,3.35
2022-07-31T01:28:54.883Z,2.92
2022-07-31T01:34:04.357Z,3.45
2022-07-31T01:39:07.817Z,2.97
2022-07-31T01:44:14.738Z,2.95
2022-07-31T01:49:20.033Z,2.90
2022-07-31T01:54:25.521Z,3.00
2022-07-31T01:59:31.669Z,3.30
2022-07-31T02:04:37.913Z,3.03
2022-07-31T02:09:53.879Z,3.35
2022-07-31T02:15:05.786Z,3.22
2022-07-31T02:20:12.594Z,3.20
2022-07-31T02:25:16.308Z,2.95
2022-07-31T02:30:21.628Z,3.17
2022-07-31T02:35:26.775Z,3.03
2022-07-31T02:40:30.785Z,3.33
2022-07-31T02:45:36.097Z,3.38
2022-07-31T02:50:42.079Z,3.63
2022-07-31T02:55:46.806Z,3.20
2022-07-31T03:00:59.706Z,4.05
2022-07-31T03:06:03.137Z,4.15
2022-07-31T03:11:06.863Z,3.85
2022-07-31T03:16:12.621Z,4.45
2022-07-31T03:21:17.420Z,4.35
2022-07-31T03:26:21.384Z,4.20
2022-07-31T03:31:26.748Z,4.72
2022-07-31T03:36:32.085Z,4.53
2022-07-31T03:41:36.065Z,5.50
2022-07-31T03:46:41.055Z,4.45
2022-07-31T03:51:44.697Z,5.13
2022-07-31T03:56:50.306Z,4.72
2022-07-31T04:01:56.813Z,5.13
2022-07-31T04:07:14.465Z,6.82
2022-07-31T04:12:17.959Z,5.95
2022-07-31T04:17:22.730Z,6.90
2022-07-31T04:22:26.232Z,6.75
2022-07-31T04:27:29.912Z,6.60
2022-07-31T04:32:34.734Z,6.07
2022-07-31T04:37:38.261Z,6.07
2022-07-31T04:42:51.637Z,5.60
2022-07-31T04:47:56.313Z,5.68
2022-07-31T04:52:59.662Z,6.50
2022-07-31T04:58:03.567Z,5.88
2022-07-31T05:03:09.159Z,6.25
2022-07-31T05:08:14.210Z,5.95
2022-07-31T05:13:17.604Z,6.05
2022-07-31T05:18:22.643Z,6.80
2022-07-31T05:23:27.131Z,6.18
2022-07-31T05:28:30.517Z,6.10
2022-07-31T05:33:35.533Z,6.32
2022-07-31T05:38:39.003Z,6.75
2022-07-31T05:43:42.623Z,6.38
2022-07-31T05:48:47.683Z,6.38
2022-07-31T05:53:51.228Z,6.82
2022-07-31T05:58:55.009Z,7.63
2022-07-31T06:04:00.349Z,6.50
2022-07-31T06:09:04.964Z,5.93
2022-07-31T06:14:09.601Z,6.70
2022-07-31T06:19:14.393Z,7.22
2022-07-31T06:24:17.686Z,6.72
2022-07-31T06:29:23.807Z,6.35
2022-07-31T06:34:46.047Z,7.25
2022-07-31T06:39:55.543Z,6.30
2022-07-31T06:44:59.807Z,6.40
2022-07-31T06:50:05.720Z,6.47
2022-07-31T06:55:10.090Z,6.68
2022-07-31T07:00:19.516Z,6.45
2022-07-31T07:05:25.580Z,5.88
2022-07-31T07:10:28.977Z,6.28
2022-07-31T07:15:32.621Z,6.70
2022-07-31T07:20:37.667Z,5.97
2022-07-31T07:25:41.577Z,6.05
2022-07-31T07:30:45.193Z,5.68
2022-07-31T07:35:50.191Z,5.15
2022-07-31T07:40:53.551Z,5.35
2022-07-31T07:45:57.192Z,4.68
2022-07-31T07:51:02.040Z,5.68
2022-07-31T07:56:05.931Z,4.75
2022-07-31T08:01:09.707Z,5.07
2022-07-31T08:06:14.617Z,4.50
2022-07-31T08:11:18.432Z,4.43
2022-07-31T08:16:22.310Z,4.53
2022-07-31T08:21:27.052Z,4.30
2022-07-31T08:26:51.517Z,4.10
2022-07-31T08:31:54.930Z,3.45
2022-07-31T08:36:59.771Z,3.58
2022-07-31T08:42:26.109Z,3.80
2022-07-31T08:47:32.776Z,3.50
2022-07-31T08:52:38.577Z,2.80
2022-07-31T08:57:42.739Z,3.20
2022-07-31T09:02:47.174Z,3.47
2022-07-31T09:07:51.907Z,3.75
2022-07-31T09:12:56.212Z,3.45
2022-07-31T09:18:00.092Z,3.80
2022-07-31T09:23:08.965Z,3.58
2022-07-31T09:28:12.858Z,2.92
2022-07-31T09:33:19.398Z,3.20
2022-07-31T09:38:32.203Z,3.28
2022-07-31T09:43:35.863Z,2.97
2022-07-31T09:49:00.138Z,2.80
2022-07-31T09:54:05.712Z,2.70
2022-07-31T09:59:11.616Z,2.63
2022-07-31T10:04:16.368Z,2.20
2022-07-31T10:09:22.465Z,2.38
2022-07-31T10:14:32.116Z,2.60
2022-07-31T10:19:39.138Z,2.38
2022-07-31T10:24:48.132Z,2.22
2022-07-31T10:36:21.066Z,2.00
2022-07-31T10:41:39.058Z,2.63
2022-07-31T10:46:42.627Z,1.90
2022-07-31T10:51:49.616Z,1.90
2022-07-31T10:56:56.057Z,2.28
2022-07-31T11:02:00.304Z,1.42
2022-07-31T11:07:15.388Z,1.77
2022-07-31T11:12:21.641Z,1.70
2022-07-31T11:18:20.652Z,1.38
2022-07-31T11:23:00.022Z,1.60
2022-07-31T11:28:14.317Z,1.95
2022-07-31T11:33:17.951Z,1.58
2022-07-31T11:38:27.359Z,1.40
2022-07-31T11:43:34.471Z,1.40
2022-07-31T11:48:45.253Z,1.80
2022-07-31T11:53:56.939Z,1.20
2022-07-31T11:59:02.333Z,1.55
2022-07-31T12:04:09.112Z,1.40
2022-07-31T12:10:00.449Z,1.05
2022-07-31T12:14:39.943Z,1.38
2022-07-31T12:19:43.438Z,0.98
2022-07-31T12:24:48.539Z,1.20
2022-07-31T12:29:53.418Z,1.02
2022-07-31T12:35:04.698Z,1.20
2022-07-31T12:40:10.455Z,1.67
2022-07-31T12:45:19.491Z,1.35
2022-07-31T12:50:25.604Z,1.20
2022-07-31T12:55:30.614Z,1.33
2022-07-31T13:00:39.633Z,1.00
2022-07-31T13:05:43.740Z,1.20
2022-07-31T13:10:48.221Z,1.15
2022-07-31T13:15:53.499Z,1.27
2022-07-31T13:20:57.052Z,1.30
2022-07-31T13:26:01.133Z,1.40
2022-07-31T13:31:05.844Z,1.10
2022-07-31T13:36:12.009Z,1.20
2022-07-31T13:41:30.858Z,0.82
2022-07-31T13:46:36.179Z,1.27
2022-07-31T13:51:40.797Z,0.80
2022-07-31T13:56:44.240Z,1.20
2022-07-31T14:02:03.740Z,1.00
2022-07-31T14:07:14.970Z,1.25
2022-07-31T14:12:18.466Z,1.10
2022-07-31T14:17:23.220Z,0.90
2022-07-31T14:22:26.926Z,1.02
2022-07-31T14:27:30.494Z,1.02
2022-07-31T14:32:35.319Z,1.00
2022-07-31T14:37:39.199Z,1.13
2022-07-31T14:42:42.748Z,1.08
2022-07-31T14:47:47.716Z,0.90
2022-07-31T14:52:51.013Z,0.98
2022-07-31T14:57:54.324Z,1.05
2022-07-31T15:02:59.328Z,1.10
2022-07-31T15:08:03.896Z,1.00
2022-07-31T15:13:07.656Z,0.90
2022-07-31T15:18:12.567Z,0.68
2022-07-31T15:23:16.194Z,0.80
2022-07-31T15:28:19.546Z,0.90
2022-07-31T15:33:24.818Z,1.23
2022-07-31T15:38:28.181Z,1.05
2022-07-31T15:43:35.081Z,1.38
2022-07-31T15:48:40.200Z,1.00
2022-07-31T15:53:43.802Z,1.15
2022-07-31T15:58:49.848Z,1.17
2022-07-31T16:03:58.571Z,0.73
2022-07-31T16:09:03.210Z,1.08
2022-07-31T16:14:06.834Z,0.70
2022-07-31T16:19:11.584Z,0.90
2022-07-31T16:24:20.216Z,0.60
2022-07-31T16:29:59.456Z,1.38
2022-07-31T16:34:53.292Z,0.80
2022-07-31T16:39:59.764Z,0.75
2022-07-31T16:45:04.440Z,0.90
2022-07-31T16:50:10.689Z,1.13
2022-07-31T16:55:14.949Z,1.08
2022-07-31T17:00:21.321Z,1.73
2022-07-31T17:05:28.814Z,1.80
2022-07-31T17:10:32.503Z,1.27
2022-07-31T17:15:35.961Z,1.10
2022-07-31T17:20:46.802Z,0.80
2022-07-31T17:25:50.664Z,1.02
2022-07-31T17:30:54.338Z,1.20
2022-07-31T17:35:59.580Z,1.45
2022-07-31T17:41:04.343Z,0.98
2022-07-31T17:47:07.442Z,1.52
2022-07-31T17:51:33.133Z,0.88
2022-07-31T17:56:36.950Z,1.17
2022-07-31T18:01:40.605Z,1.48
2022-07-31T18:06:51.412Z,2.00
2022-07-31T18:11:58.336Z,2.70
2022-07-31T18:17:01.813Z,1.38
2022-07-31T18:22:07.215Z,1.30
2022-07-31T18:27:10.833Z,1.20
2022-07-31T18:32:14.221Z,1.13
2022-07-31T18:37:18.981Z,2.20
2022-07-31T18:42:24.082Z,1.45
2022-07-31T18:47:27.658Z,3.95
2022-07-31T18:52:32.454Z,1.73
2022-07-31T18:57:36.066Z,1.35
2022-07-31T19:02:39.652Z,1.52
2022-07-31T19:07:44.865Z,1.40
2022-07-31T19:12:53.531Z,1.48
2022-07-31T19:17:58.538Z,1.52
2022-07-31T19:23:03.715Z,1.80
2022-07-31T19:28:07.755Z,1.73
2022-07-31T19:33:19.595Z,2.47
2022-07-31T19:38:24.516Z,2.28
2022-07-31T19:43:28.231Z,2.97
2022-07-31T19:48:31.840Z,2.33
2022-07-31T19:53:37.590Z,2.20
2022-07-31T19:58:42.248Z,2.20
2022-07-31T20:03:45.961Z,1.70
2022-07-31T20:08:50.911Z,1.98
2022-07-31T20:13:54.330Z,2.55
2022-07-31T20:18:57.919Z,2.03
2022-07-31T20:24:03.003Z,2.10
2022-07-31T20:29:09.307Z,3.17
2022-07-31T20:34:12.851Z,2.40
2022-07-31T20:39:17.600Z,2.58
2022-07-31T20:44:21.722Z,2.53
2022-07-31T20:49:34.745Z,2.88
2022-07-31T20:54:41.166Z,2.85
2022-07-31T20:59:44.583Z,2.80
2022-07-31T21:04:47.943Z,2.40
2022-07-31T21:09:52.913Z,5.60
2022-07-31T21:14:56.325Z,2.55
2022-07-31T21:20:05.202Z,2.35
2022-07-31T21:25:11.358Z,2.10
2022-07-31T21:30:15.384Z,1.85
2022-07-31T21:35:36.325Z,1.60
2022-07-31T21:40:41.781Z,1.80
2022-07-31T21:45:55.483Z,1.70
2022-07-31T21:51:01.662Z,2.05
2022-07-31T21:56:10.386Z,1.48
2022-07-31T22:01:15.221Z,1.70
2022-07-31T22:06:36.622Z,2.00
2022-07-31T22:11:41.653Z,2.10
2022-07-31T22:16:59.182Z,2.05
2022-07-31T22:22:03.527Z,2.35
2022-07-31T22:27:26.721Z,2.33
2022-07-31T22:32:30.513Z,2.05
2022-07-31T22:37:34.052Z,1.65
2022-07-31T22:42:38.909Z,1.92
2022-07-31T22:47:43.911Z,2.22
2022-07-31T22:52:47.369Z,2.00
2022-07-31T22:57:52.017Z,2.35
2022-07-31T23:02:55.372Z,2.00
2022-07-31T23:07:58.739Z,2.20
2022-07-31T23:13:03.409Z,2.80
2022-07-31T23:18:06.839Z,2.35
2022-07-31T23:23:10.464Z,1.92
2022-07-31T23:28:15.149Z,2.10
2022-07-31T23:33:18.442Z,2.20
2022-07-31T23:38:22.086Z,2.22
2022-07-31T23:43:27.121Z,2.15
2022-07-31T23:48:30.515Z,2.20
2022-07-31T23:53:34.340Z,2.25
2022-07-31T23:58:39.074Z,2.15
